Time;durP1;ratioP1;P1;durP2;ratioP2;P2;SDS_P1;SDS_P2;PMS_P1;PMS_P2;Temp;Humidity;BMP_temperature;BMP_pressure;BME280_temperature;BME280_humidity;BME280_pressure;Samples;Min_cycle;Max_cycle;Signal;HPM_P1;HPM_P2
2022/07/02 00:03:39;;;;;;;4.07;2.03;;;16.10;99.90;;;;;;10327695;28;20287;-69
2022/07/02 00:08:42;;;;;;;1.87;1.57;;;16.10;99.90;;;;;;10336716;28;20751;-70
2022/07/02 00:13:43;;;;;;;2.90;1.70;;;16.00;99.90;;;;;;10332809;28;20230;-69
2022/07/02 00:18:44;;;;;;;3.60;1.70;;;15.90;99.90;;;;;;10340917;28;20221;-70
2022/07/02 00:23:44;;;;;;;1.97;1.60;;;15.90;99.90;;;;;;10342447;28;20264;-68
2022/07/02 00:28:49;;;;;;;2.70;1.80;;;15.80;99.90;;;;;;10335124;28;20232;-70
2022/07/02 00:33:49;;;;;;;2.60;1.70;;;15.70;99.90;;;;;;10343698;28;20315;-70
2022/07/02 00:38:50;;;;;;;4.53;1.90;;;15.70;99.90;;;;;;10331996;28;20308;-70
2022/07/02 00:43:51;;;;;;;2.33;1.60;;;15.70;99.90;;;;;;10334902;28;20235;-69
2022/07/02 00:48:53;;;;;;;2.53;2.00;;;15.60;99.90;;;;;;10351357;28;20227;-69
2022/07/02 00:53:54;;;;;;;2.00;1.90;;;15.60;99.90;;;;;;10351039;28;20256;-69
2022/07/02 00:58:55;;;;;;;2.50;1.67;;;15.50;99.90;;;;;;10348779;28;20708;-69
2022/07/02 01:04:00;;;;;;;2.70;1.63;;;15.40;99.90;;;;;;10346688;28;20228;-69
2022/07/02 01:14:22;;;;;;;3.43;1.73;;;15.30;99.90;;;;;;10340724;28;20665;-70
2022/07/02 01:19:23;;;;;;;2.10;1.87;;;15.20;99.90;;;;;;10330643;28;20248;-69
2022/07/02 01:24:24;;;;;;;4.33;2.20;;;15.20;99.90;;;;;;10337882;28;20311;-69
2022/07/02 01:29:25;;;;;;;2.40;2.17;;;15.20;99.90;;;;;;10329295;28;20239;-70
2022/07/02 01:34:26;;;;;;;4.20;2.47;;;15.20;99.90;;;;;;10336862;28;20314;-70
2022/07/02 01:39:30;;;;;;;4.97;2.40;;;15.10;99.90;;;;;;10343811;28;20243;-69
2022/07/02 01:44:35;;;;;;;6.77;1.93;;;15.00;99.90;;;;;;10337713;28;20299;-69
2022/07/02 01:49:37;;;;;;;2.83;1.90;;;14.90;99.90;;;;;;10302734;28;20326;-70
2022/07/02 01:54:37;;;;;;;2.83;2.20;;;14.90;99.90;;;;;;10339745;28;20354;-70
2022/07/02 01:59:38;;;;;;;4.17;1.80;;;14.90;99.90;;;;;;10325678;28;20331;-68
2022/07/02 02:04:39;;;;;;;3.17;2.20;;;14.90;99.90;;;;;;10343261;28;20211;-69
2022/07/02 02:09:39;;;;;;;3.43;2.10;;;14.90;99.90;;;;;;10335344;28;20311;-69
2022/07/02 02:14:40;;;;;;;2.40;1.90;;;14.80;99.90;;;;;;10337371;28;20268;-69
2022/07/02 02:19:41;;;;;;;3.67;2.30;;;14.70;99.90;;;;;;10343891;28;20610;-69
2022/07/02 02:24:41;;;;;;;4.90;2.30;;;14.70;99.90;;;;;;10333558;28;20340;-69
2022/07/02 02:29:42;;;;;;;2.57;2.23;;;14.70;99.90;;;;;;10346410;28;20229;-70
2022/07/02 02:34:42;;;;;;;4.27;2.63;;;14.70;99.90;;;;;;10318591;28;20303;-69
2022/07/02 02:39:43;;;;;;;2.80;2.60;;;14.60;99.90;;;;;;10332568;28;20225;-69
2022/07/02 02:44:43;;;;;;;2.83;2.63;;;14.60;99.90;;;;;;10324840;28;20222;-68
2022/07/02 02:49:44;;;;;;;4.00;2.90;;;14.60;99.90;;;;;;10339763;28;20261;-69
2022/07/02 02:54:45;;;;;;;3.60;2.73;;;14.60;99.90;;;;;;10330984;28;20253;-70
2022/07/02 02:59:45;;;;;;;4.43;3.07;;;14.50;99.90;;;;;;10346578;28;20270;-68
2022/07/02 03:04:46;;;;;;;3.20;2.90;;;14.50;99.90;;;;;;10330232;28;20221;-69
2022/07/02 03:09:46;;;;;;;3.10;2.80;;;14.50;99.90;;;;;;10327626;28;20216;-69
2022/07/02 03:14:47;;;;;;;4.87;2.40;;;14.50;99.90;;;;;;10340147;28;20220;-68
2022/07/02 03:19:48;;;;;;;4.03;2.50;;;14.50;99.90;;;;;;10346867;28;20229;-69
2022/07/02 03:24:51;;;;;;;3.67;2.70;;;14.50;99.90;;;;;;10328246;28;20219;-70
2022/07/02 03:29:52;;;;;;;3.77;2.50;;;14.50;99.90;;;;;;10333083;28;20764;-69
2022/07/02 03:34:53;;;;;;;2.83;2.57;;;14.50;99.90;;;;;;10327705;28;20796;-69
2022/07/02 03:39:54;;;;;;;5.50;3.10;;;14.50;99.90;;;;;;10329707;28;20437;-69
2022/07/02 03:44:55;;;;;;;3.43;2.47;;;14.50;99.90;;;;;;10319023;28;20232;-70
2022/07/02 03:49:55;;;;;;;3.23;2.67;;;14.50;99.90;;;;;;10327197;28;20232;-69
2022/07/02 03:54:56;;;;;;;4.43;3.00;;;14.60;99.90;;;;;;10318087;28;20231;-69
2022/07/02 03:59:57;;;;;;;3.93;2.80;;;14.70;99.90;;;;;;10335562;28;20798;-70
2022/07/02 04:04:58;;;;;;;2.70;2.50;;;14.70;99.90;;;;;;10320521;28;20244;-69
2022/07/02 04:09:58;;;;;;;2.43;2.23;;;14.80;99.90;;;;;;10336496;28;20217;-69
2022/07/02 04:14:59;;;;;;;3.20;2.50;;;14.90;99.90;;;;;;10320633;28;20650;-69
2022/07/02 04:20:00;;;;;;;4.10;2.53;;;15.00;99.90;;;;;;10352784;28;20224;-69
2022/07/02 04:25:00;;;;;;;3.53;2.17;;;15.10;99.90;;;;;;10342383;28;20213;-69
2022/07/02 04:30:01;;;;;;;4.93;2.63;;;15.30;99.90;;;;;;10347280;28;20220;-69
2022/07/02 04:35:02;;;;;;;2.77;2.50;;;15.40;99.90;;;;;;10349253;28;20348;-69
2022/07/02 04:40:03;;;;;;;2.30;2.10;;;15.70;99.90;;;;;;10348270;28;20218;-69
2022/07/02 04:45:05;;;;;;;2.40;2.10;;;16.70;99.90;;;;;;10334138;28;20903;-69
2022/07/02 04:50:06;;;;;;;3.53;2.50;;;17.10;99.90;;;;;;10337079;28;20201;-69
2022/07/02 04:55:07;;;;;;;5.30;3.00;;;17.00;99.90;;;;;;10315371;28;20214;-69
2022/07/02 05:00:08;;;;;;;3.53;2.63;;;16.90;99.90;;;;;;10347138;28;20576;-70
2022/07/02 05:05:09;;;;;;;4.57;2.63;;;16.90;99.90;;;;;;10322782;28;20187;-69
2022/07/02 05:10:10;;;;;;;4.07;2.23;;;17.30;99.90;;;;;;10346385;28;20196;-71
2022/07/02 05:15:10;;;;;;;3.30;2.07;;;20.50;99.90;;;;;;10328346;28;20592;-69
2022/07/02 05:20:11;;;;;;;2.80;1.93;;;23.70;99.90;;;;;;10349040;28;20723;-69
2022/07/02 05:25:12;;;;;;;4.03;2.50;;;26.20;98.10;;;;;;10327451;28;20193;-71
2022/07/02 05:30:12;;;;;;;2.97;1.93;;;27.70;86.90;;;;;;10339803;28;20232;-71
2022/07/02 05:35:13;;;;;;;2.53;2.20;;;28.70;77.20;;;;;;10333694;28;20190;-72
2022/07/02 05:40:14;;;;;;;3.60;2.07;;;29.50;69.00;;;;;;10346576;28;20209;-70
2022/07/02 05:45:17;;;;;;;4.97;2.33;;;30.60;61.70;;;;;;10333203;28;20182;-71
2022/07/02 05:50:18;;;;;;;2.87;2.10;;;31.60;57.40;;;;;;10335769;28;20285;-70
2022/07/02 05:55:19;;;;;;;5.20;2.43;;;32.20;53.90;;;;;;10333562;28;20335;-70
2022/07/02 06:00:19;;;;;;;4.17;2.20;;;32.80;52.00;;;;;;10340866;28;20213;-71
2022/07/02 06:10:42;;;;;;;3.63;1.53;;;33.70;47.90;;;;;;10347497;28;20217;-71
2022/07/02 06:15:43;;;;;;;2.43;1.50;;;34.20;45.30;;;;;;10343262;28;20218;-71
2022/07/02 06:20:44;;;;;;;4.40;2.00;;;35.10;43.90;;;;;;10332137;28;20656;-70
2022/07/02 06:25:44;;;;;;;2.63;1.70;;;35.50;42.30;;;;;;10324674;28;20217;-71
2022/07/02 06:30:45;;;;;;;2.30;1.80;;;35.70;41.30;;;;;;10331524;28;20279;-71
2022/07/02 06:35:46;;;;;;;4.17;1.77;;;36.40;40.10;;;;;;10337766;28;20224;-70
2022/07/02 06:40:47;;;;;;;1.83;1.73;;;36.90;38.00;;;;;;10348185;28;20217;-70
2022/07/02 06:45:47;;;;;;;2.73;1.97;;;37.10;38.00;;;;;;10339689;28;20245;-71
2022/07/02 06:50:48;;;;;;;3.40;1.90;;;37.30;37.00;;;;;;10336428;28;20244;-72
2022/07/02 06:55:48;;;;;;;2.40;1.97;;;37.70;36.10;;;;;;10321343;28;20228;-71
2022/07/02 07:00:49;;;;;;;4.10;2.57;;;38.20;36.40;;;;;;10334435;28;20692;-70
2022/07/02 07:05:51;;;;;;;3.93;2.27;;;39.20;34.70;;;;;;10298229;28;20916;-71
2022/07/02 07:10:52;;;;;;;2.53;2.10;;;39.60;34.50;;;;;;10351456;28;20225;-71
2022/07/02 07:15:53;;;;;;;3.93;2.20;;;39.10;33.20;;;;;;10319881;28;20264;-71
2022/07/02 07:20:53;;;;;;;4.63;2.23;;;39.30;33.30;;;;;;10348012;28;20308;-71
2022/07/02 07:25:54;;;;;;;3.03;2.20;;;39.50;32.50;;;;;;10343913;28;20228;-71
2022/07/02 07:30:55;;;;;;;4.33;1.87;;;39.90;32.30;;;;;;10340633;28;20229;-70
2022/07/02 07:35:57;;;;;;;4.40;2.00;;;40.20;31.90;;;;;;10337765;28;20577;-71
2022/07/02 07:40:57;;;;;;;3.07;2.00;;;38.90;32.60;;;;;;10335541;28;20596;-70
2022/07/02 07:45:58;;;;;;;3.30;2.10;;;39.30;31.90;;;;;;10342892;28;20280;-72
2022/07/02 07:50:59;;;;;;;2.87;2.23;;;39.30;31.00;;;;;;10336753;28;20312;-71
2022/07/02 07:56:00;;;;;;;6.10;2.20;;;40.70;29.90;;;;;;10347877;28;20233;-71
2022/07/02 08:01:01;;;;;;;5.37;2.13;;;41.80;29.40;;;;;;10344643;28;20229;-76
2022/07/02 08:06:02;;;;;;;4.33;2.43;;;42.60;28.20;;;;;;10343865;28;20217;-71
2022/07/02 08:11:03;;;;;;;7.60;2.30;;;39.00;30.40;;;;;;10316298;28;20234;-70
2022/07/02 08:16:04;;;;;;;4.60;1.70;;;38.80;31.30;;;;;;10347741;28;20708;-71
2022/07/02 08:21:05;;;;;;;3.73;1.53;;;40.60;30.20;;;;;;10341669;28;20232;-69
2022/07/02 08:26:06;;;;;;;4.20;1.50;;;42.00;29.40;;;;;;10338234;28;20668;-72
2022/07/02 08:31:06;;;;;;;2.78;1.58;;;42.80;28.50;;;;;;10345592;28;20244;-71
2022/07/02 08:36:07;;;;;;;2.40;1.30;;;42.40;28.70;;;;;;10342930;28;20258;-71
2022/07/02 08:41:12;;;;;;;4.53;1.92;;;41.60;28.90;;;;;;10326125;28;20223;-70
2022/07/02 08:46:14;;;;;;;3.85;1.45;;;43.00;27.90;;;;;;10354600;28;20221;-70
2022/07/02 08:51:15;;;;;;;2.05;1.10;;;43.70;27.10;;;;;;10309290;28;20215;-69
2022/07/02 08:56:17;;;;;;;1.63;1.33;;;42.20;27.50;;;;;;10340381;28;20221;-70
2022/07/02 09:01:18;;;;;;;4.75;1.50;;;41.10;28.60;;;;;;10348771;28;20321;-70
2022/07/02 09:06:21;;;;;;;2.95;1.20;;;41.90;27.10;;;;;;10342852;28;20231;-71
2022/07/02 09:11:23;;;;;;;3.67;1.08;;;42.10;26.70;;;;;;10336854;28;20215;-72
2022/07/02 09:16:24;;;;;;;2.50;1.10;;;41.20;26.80;;;;;;10354403;28;20225;-70
2022/07/02 09:21:25;;;;;;;2.83;1.00;;;41.10;27.50;;;;;;10338606;28;20325;-70
2022/07/02 09:26:26;;;;;;;1.63;1.00;;;42.10;26.50;;;;;;10323459;28;20304;-69
2022/07/02 09:31:27;;;;;;;1.07;0.90;;;41.90;27.10;;;;;;10333548;28;20267;-70
2022/07/02 09:36:28;;;;;;;3.10;1.00;;;43.30;26.30;;;;;;10328567;28;20218;-70
2022/07/02 09:41:29;;;;;;;5.00;1.13;;;44.10;25.00;;;;;;10350211;28;20236;-70
2022/07/02 09:46:30;;;;;;;1.03;0.80;;;40.00;27.10;;;;;;10336729;28;20308;-71
2022/07/02 09:51:31;;;;;;;1.70;0.67;;;37.40;30.50;;;;;;10350137;28;20223;-70
2022/07/02 09:56:31;;;;;;;4.63;0.80;;;37.20;31.20;;;;;;10331397;28;20264;-70
2022/07/02 10:01:43;;;;;;;3.90;0.90;;;35.90;32.40;;;;;;10344321;28;20301;-71
2022/07/02 10:06:43;;;;;;;3.33;0.70;;;36.40;31.40;;;;;;10334914;28;20219;-70
2022/07/02 10:11:45;;;;;;;3.97;0.90;;;37.90;30.60;;;;;;10319434;28;20682;-71
2022/07/02 10:16:47;;;;;;;1.67;0.80;;;41.30;28.30;;;;;;10342593;28;20633;-70
2022/07/02 10:21:48;;;;;;;1.30;0.83;;;39.10;27.70;;;;;;10339611;28;20605;-69
2022/07/02 10:26:50;;;;;;;1.03;0.80;;;39.40;28.20;;;;;;10346060;28;20226;-70
2022/07/02 10:32:15;;;;;;;1.13;0.70;;;40.30;28.10;;;;;;10334851;28;20238;-70
2022/07/02 10:37:16;;;;;;;2.13;0.90;;;37.30;29.40;;;;;;10304862;28;20248;-69
2022/07/02 10:42:17;;;;;;;1.27;0.77;;;34.90;33.50;;;;;;10339184;28;20303;-69
2022/07/02 10:47:26;;;;;;;1.57;0.60;;;36.80;31.30;;;;;;10346048;28;20275;-70
2022/07/02 10:52:51;;;;;;;1.57;0.67;;;36.40;31.20;;;;;;10335424;28;20265;-70
2022/07/02 10:57:59;;;;;;;2.13;0.90;;;34.70;33.30;;;;;;10344728;28;20233;-70
2022/07/02 11:03:11;;;;;;;2.03;0.80;;;34.50;33.80;;;;;;10334906;28;20229;-70
2022/07/02 11:08:44;;;;;;;2.70;1.00;;;36.10;31.10;;;;;;10344076;28;20641;-69
2022/07/02 11:13:53;;;;;;;2.00;0.90;;;34.30;33.10;;;;;;10316809;28;20636;-70
2022/07/02 11:18:56;;;;;;;1.40;0.80;;;32.80;35.10;;;;;;10342511;28;20222;-69
2022/07/02 11:23:57;;;;;;;1.30;0.40;;;34.30;33.80;;;;;;10331777;28;20771;-69
2022/07/02 11:29:03;;;;;;;2.47;0.80;;;35.30;31.50;;;;;;10343444;28;20309;-70
2022/07/02 11:34:04;;;;;;;1.40;0.80;;;34.40;32.50;;;;;;10327791;28;20592;-71
2022/07/02 11:39:13;;;;;;;0.90;0.90;;;34.90;32.50;;;;;;10343794;28;20233;-68
2022/07/02 11:44:19;;;;;;;0.90;0.90;;;34.80;33.40;;;;;;10318519;28;20269;-69
2022/07/02 11:49:31;;;;;;;0.67;0.67;;;32.00;35.70;;;;;;10337075;28;20323;-69
2022/07/02 11:54:31;;;;;;;1.97;0.80;;;30.20;38.70;;;;;;10332006;28;20283;-70
2022/07/02 11:59:32;;;;;;;3.10;0.90;;;29.30;40.50;;;;;;10349723;28;20304;-69
2022/07/02 12:04:32;;;;;;;0.63;0.50;;;29.30;41.10;;;;;;10340503;28;20272;-69
2022/07/02 12:09:39;;;;;;;1.33;0.67;;;28.40;41.80;;;;;;10332625;28;20221;-69
2022/07/02 12:14:41;;;;;;;1.33;0.60;;;28.30;42.60;;;;;;10342609;28;20599;-71
2022/07/02 12:19:41;;;;;;;0.53;0.53;;;28.50;42.30;;;;;;10347762;28;20225;-68
2022/07/02 12:24:49;;;;;;;1.90;0.70;;;28.80;42.70;;;;;;10338903;28;20873;-69
2022/07/02 12:29:53;;;;;;;1.50;0.60;;;28.80;42.10;;;;;;10331085;28;20234;-69
2022/07/02 12:34:55;;;;;;;0.53;0.53;;;28.40;41.90;;;;;;10336374;28;20236;-70
2022/07/02 12:40:20;;;;;;;3.77;1.17;;;28.40;43.50;;;;;;10353129;28;20217;-69
2022/07/02 12:45:30;;;;;;;1.27;0.60;;;28.60;42.20;;;;;;10323002;28;20482;-70
2022/07/02 12:50:38;;;;;;;1.03;0.73;;;28.90;42.50;;;;;;10351185;28;20226;-69
2022/07/02 12:55:54;;;;;;;5.00;0.73;;;28.30;42.90;;;;;;10321637;28;20233;-68
2022/07/02 13:00:54;;;;;;;0.60;0.60;;;28.20;42.60;;;;;;10349573;28;20347;-68
2022/07/02 13:05:57;;;;;;;1.20;0.80;;;28.50;42.90;;;;;;10342099;28;20324;-70
2022/07/02 13:10:58;;;;;;;0.60;0.60;;;28.60;42.70;;;;;;10332205;28;20226;-69
2022/07/02 13:15:58;;;;;;;0.97;0.53;;;28.60;42.40;;;;;;10346815;28;20708;-69
2022/07/02 13:20:59;;;;;;;2.10;0.50;;;28.70;42.70;;;;;;10337114;28;20253;-70
2022/07/02 13:26:00;;;;;;;0.70;0.37;;;29.00;41.40;;;;;;10348349;28;20222;-69
2022/07/02 13:31:01;;;;;;;0.57;0.40;;;28.30;42.70;;;;;;10317605;28;20674;-69
2022/07/02 13:36:02;;;;;;;1.87;0.60;;;28.00;43.20;;;;;;10340350;28;20217;-68
2022/07/02 13:41:03;;;;;;;3.03;0.57;;;28.10;43.10;;;;;;10336007;28;20220;-69
2022/07/02 13:46:03;;;;;;;2.13;0.50;;;27.80;44.20;;;;;;10335909;28;20225;-69
2022/07/02 13:51:08;;;;;;;1.23;0.63;;;27.40;45.60;;;;;;10344836;28;20252;-68
2022/07/02 13:56:08;;;;;;;1.87;0.70;;;27.30;44.90;;;;;;10335154;28;20229;-70
2022/07/02 14:01:13;;;;;;;1.93;0.50;;;27.40;44.80;;;;;;10352661;28;20300;-69
2022/07/02 14:06:13;;;;;;;4.23;0.60;;;27.80;44.60;;;;;;10347328;28;20236;-70
2022/07/02 14:11:14;;;;;;;3.83;0.70;;;27.80;44.50;;;;;;10344727;28;20228;-70
2022/07/02 14:16:15;;;;;;;1.50;0.60;;;27.90;43.70;;;;;;10331890;28;20291;-69
2022/07/02 14:21:16;;;;;;;0.73;0.40;;;27.90;44.00;;;;;;10347549;28;20248;-69
2022/07/02 14:26:17;;;;;;;0.47;0.47;;;27.90;44.20;;;;;;10340605;28;20222;-68
2022/07/02 14:31:18;;;;;;;2.43;0.50;;;28.00;44.10;;;;;;10339577;28;20372;-71
2022/07/02 14:36:19;;;;;;;0.80;0.50;;;27.80;43.30;;;;;;10320413;28;20333;-69
2022/07/02 14:41:32;;;;;;;0.90;0.70;;;27.70;44.30;;;;;;10340300;28;20226;-69
2022/07/02 14:46:32;;;;;;;3.20;0.67;;;27.70;43.80;;;;;;10343473;28;20210;-70
2022/07/02 14:51:33;;;;;;;1.60;0.60;;;27.90;42.50;;;;;;10346860;28;20230;-69
2022/07/02 14:56:34;;;;;;;0.83;0.80;;;28.00;42.90;;;;;;10340844;28;20294;-70
2022/07/02 15:01:35;;;;;;;2.80;0.70;;;28.00;42.10;;;;;;10333042;28;20392;-70
2022/07/02 15:06:36;;;;;;;1.13;0.60;;;27.80;43.10;;;;;;10330920;28;20641;-70
2022/07/02 15:11:37;;;;;;;1.30;0.80;;;27.70;44.00;;;;;;10345429;28;20800;-70
2022/07/02 15:16:37;;;;;;;0.57;0.50;;;27.60;44.20;;;;;;10348820;28;20315;-69
2022/07/02 15:21:47;;;;;;;2.23;0.90;;;27.70;43.30;;;;;;10349307;28;20221;-68
2022/07/02 15:26:47;;;;;;;1.33;0.67;;;27.70;44.00;;;;;;10353064;28;20308;-70
2022/07/02 15:31:48;;;;;;;1.03;0.83;;;27.60;43.80;;;;;;10338628;28;20320;-70
2022/07/02 15:36:50;;;;;;;2.00;0.43;;;27.50;43.60;;;;;;10328886;28;20216;-69
2022/07/02 15:41:52;;;;;;;1.30;0.80;;;27.60;44.50;;;;;;10325937;28;20697;-70
2022/07/02 15:46:54;;;;;;;2.07;0.90;;;27.70;43.50;;;;;;10344768;28;20232;-70
2022/07/02 15:51:57;;;;;;;0.60;0.60;;;27.90;43.90;;;;;;10319494;28;20625;-69
2022/07/02 15:57:07;;;;;;;0.93;0.50;;;27.70;44.20;;;;;;10347407;28;20298;-70
2022/07/02 16:02:09;;;;;;;1.37;0.70;;;27.60;43.30;;;;;;10334553;28;20940;-69
2022/07/02 16:07:11;;;;;;;2.83;0.70;;;27.60;43.60;;;;;;10356473;28;20775;-69
2022/07/02 16:12:13;;;;;;;0.50;0.50;;;27.60;43.60;;;;;;10355745;28;20783;-69
2022/07/02 16:17:15;;;;;;;1.50;0.73;;;27.60;44.30;;;;;;10346845;28;20287;-71
2022/07/02 16:22:17;;;;;;;2.00;0.70;;;27.60;43.30;;;;;;10331336;28;20218;-69
2022/07/02 16:27:18;;;;;;;4.37;0.97;;;27.40;44.20;;;;;;10361699;28;20812;-69
2022/07/02 16:32:34;;;;;;;2.73;0.70;;;27.40;44.50;;;;;;10332934;28;20226;-69
2022/07/02 16:37:35;;;;;;;1.77;0.60;;;27.50;44.00;;;;;;10359629;28;20227;-69
2022/07/02 16:42:37;;;;;;;0.80;0.80;;;27.40;43.60;;;;;;10333390;28;20240;-69
2022/07/02 16:47:46;;;;;;;1.03;0.90;;;27.40;44.00;;;;;;10353700;28;20348;-70
2022/07/02 16:53:05;;;;;;;0.80;0.80;;;27.30;43.60;;;;;;10334308;28;20360;-70
2022/07/02 16:58:08;;;;;;;2.53;0.80;;;27.20;43.90;;;;;;10360444;28;20229;-69
2022/07/02 17:03:09;;;;;;;0.63;0.40;;;27.10;43.70;;;;;;10353938;28;20234;-70
2022/07/02 17:08:10;;;;;;;0.90;0.50;;;27.10;44.20;;;;;;10346831;28;20363;-70
2022/07/02 17:13:10;;;;;;;0.80;0.70;;;27.00;44.50;;;;;;10357800;28;20221;-70
2022/07/02 17:18:12;;;;;;;0.50;0.50;;;27.00;45.30;;;;;;10350329;28;20376;-69
2022/07/02 17:23:12;;;;;;;2.23;0.73;;;27.00;45.50;;;;;;10328049;28;20326;-69
2022/07/02 17:28:13;;;;;;;0.60;0.60;;;26.80;45.80;;;;;;10350176;28;20245;-69
2022/07/02 17:33:13;;;;;;;0.87;0.70;;;26.80;46.10;;;;;;10335029;28;20233;-69
2022/07/02 17:38:16;;;;;;;1.70;0.73;;;26.80;46.10;;;;;;10333856;28;20272;-70
2022/07/02 17:43:17;;;;;;;0.93;0.70;;;26.70;46.20;;;;;;10323898;28;20224;-70
2022/07/02 17:48:18;;;;;;;1.17;0.60;;;26.70;45.60;;;;;;10363574;28;20300;-69
2022/07/02 17:53:19;;;;;;;0.60;0.53;;;26.60;45.80;;;;;;10333267;28;20874;-69
2022/07/02 17:58:21;;;;;;;1.23;0.70;;;26.50;45.80;;;;;;10347708;28;20221;-70
2022/07/02 18:03:22;;;;;;;1.53;0.67;;;26.40;46.60;;;;;;10342615;28;20627;-70
2022/07/02 18:08:23;;;;;;;1.43;0.80;;;26.40;47.00;;;;;;10361923;28;20224;-69
2022/07/02 18:13:24;;;;;;;2.50;0.73;;;26.30;46.90;;;;;;10323625;28;20712;-69
2022/07/02 18:18:24;;;;;;;2.53;0.90;;;26.30;46.70;;;;;;10345790;28;20249;-70
2022/07/02 18:23:29;;;;;;;2.40;0.63;;;26.20;47.20;;;;;;10338546;28;20754;-70
2022/07/02 18:28:30;;;;;;;1.83;0.63;;;26.10;47.30;;;;;;10343950;28;20273;-69
2022/07/02 18:33:31;;;;;;;1.00;0.90;;;26.00;46.90;;;;;;10343724;28;20727;-69
2022/07/02 18:38:31;;;;;;;3.53;0.87;;;25.90;47.40;;;;;;10342151;28;20283;-70
2022/07/02 18:43:32;;;;;;;2.17;1.00;;;25.90;47.60;;;;;;10330513;28;20343;-69
2022/07/02 18:48:33;;;;;;;0.67;0.53;;;25.70;47.80;;;;;;10333458;28;20221;-69
2022/07/02 18:53:34;;;;;;;3.50;1.53;;;25.60;48.00;;;;;;10330814;28;20230;-70
2022/07/02 18:58:34;;;;;;;0.73;0.70;;;25.40;48.40;;;;;;10353927;28;20225;-70
2022/07/02 19:03:35;;;;;;;2.10;0.90;;;25.30;48.40;;;;;;10338036;28;20731;-69
2022/07/02 19:08:36;;;;;;;1.20;0.90;;;25.20;48.80;;;;;;10352888;28;20228;-69
2022/07/02 19:13:39;;;;;;;1.93;0.77;;;25.00;49.20;;;;;;10345102;28;20233;-69
2022/07/02 19:18:39;;;;;;;1.20;1.00;;;24.80;49.70;;;;;;10350679;28;20225;-69
2022/07/02 19:23:44;;;;;;;1.67;0.70;;;24.70;49.80;;;;;;10337381;28;20230;-70
2022/07/02 19:34:07;;;;;;;1.50;1.00;;;24.40;51.20;;;;;;10349808;28;20700;-69
2022/07/02 19:39:08;;;;;;;1.13;1.10;;;24.20;51.80;;;;;;10341543;28;20222;-69
2022/07/02 19:44:09;;;;;;;3.60;2.23;;;24.00;53.00;;;;;;10343331;28;20210;-69
2022/07/02 19:49:09;;;;;;;4.20;2.03;;;23.70;53.90;;;;;;10352001;28;20764;-70
2022/07/02 19:54:10;;;;;;;2.83;1.77;;;23.60;54.10;;;;;;10325137;28;20228;-70
2022/07/02 19:59:10;;;;;;;2.13;1.57;;;23.40;56.00;;;;;;10334035;28;20225;-69
2022/07/02 20:04:11;;;;;;;2.60;1.80;;;23.20;57.80;;;;;;10323890;28;20228;-71
2022/07/02 20:09:12;;;;;;;2.93;1.57;;;22.90;58.60;;;;;;10327205;28;20274;-69
2022/07/02 20:14:13;;;;;;;2.07;1.83;;;22.70;59.80;;;;;;10326342;28;20245;-69
2022/07/02 20:19:14;;;;;;;3.20;1.70;;;22.60;61.20;;;;;;10343864;28;20237;-69
2022/07/02 20:24:14;;;;;;;2.10;1.90;;;22.40;61.20;;;;;;10348735;28;20229;-70
2022/07/02 20:29:18;;;;;;;4.40;3.47;;;22.30;61.40;;;;;;10339283;28;20224;-69
2022/07/02 20:34:19;;;;;;;5.83;3.23;;;22.20;61.00;;;;;;10325702;28;20261;-70
2022/07/02 20:39:20;;;;;;;13.23;11.27;;;22.10;62.80;;;;;;10333113;28;20257;-69
2022/07/02 20:44:20;;;;;;;9.03;7.70;;;22.10;64.10;;;;;;10344159;28;20218;-69
2022/07/02 20:49:24;;;;;;;14.43;12.70;;;22.00;62.90;;;;;;10319618;28;20222;-69
2022/07/02 20:54:25;;;;;;;9.80;8.37;;;21.90;65.60;;;;;;10345796;28;20258;-70
2022/07/02 20:59:26;;;;;;;12.20;9.20;;;21.80;64.70;;;;;;10347298;28;20238;-70
2022/07/02 21:04:27;;;;;;;8.57;7.33;;;21.80;65.70;;;;;;10336413;28;20216;-69
2022/07/02 21:09:28;;;;;;;5.10;3.73;;;21.70;66.40;;;;;;10347628;28;20908;-69
2022/07/02 21:14:29;;;;;;;5.93;5.00;;;21.60;65.80;;;;;;10334067;28;20600;-69
2022/07/02 21:19:29;;;;;;;5.07;3.90;;;21.60;66.40;;;;;;10325191;28;20298;-69
2022/07/02 21:24:30;;;;;;;4.33;3.00;;;21.50;69.40;;;;;;10346191;28;20705;-70
2022/07/02 21:29:31;;;;;;;4.03;3.30;;;21.50;70.00;;;;;;10340378;28;20245;-69
2022/07/02 21:34:32;;;;;;;3.60;3.13;;;21.40;70.90;;;;;;10349646;28;20229;-69
2022/07/02 21:39:32;;;;;;;4.47;3.87;;;21.30;72.30;;;;;;10349085;28;20222;-69
2022/07/02 21:44:34;;;;;;;3.70;3.20;;;21.20;73.00;;;;;;10337958;28;20320;-69
2022/07/02 21:49:34;;;;;;;3.97;3.30;;;21.00;73.60;;;;;;10341424;28;20245;-69
2022/07/02 21:54:35;;;;;;;3.83;2.60;;;21.00;75.10;;;;;;10349286;28;20232;-69
2022/07/02 21:59:36;;;;;;;3.47;2.60;;;20.90;74.80;;;;;;10343280;28;20331;-70
2022/07/02 22:04:36;;;;;;;2.90;2.07;;;20.90;74.40;;;;;;10342315;28;20217;-69
2022/07/02 22:09:37;;;;;;;3.83;2.33;;;20.80;74.40;;;;;;10338863;28;20222;-69
2022/07/02 22:14:38;;;;;;;4.23;2.30;;;20.70;75.30;;;;;;10352490;28;20229;-69
2022/07/02 22:19:38;;;;;;;2.67;2.07;;;20.60;76.10;;;;;;10344754;28;20221;-69
2022/07/02 22:24:39;;;;;;;2.80;2.40;;;20.60;77.70;;;;;;10353371;28;20214;-69
2022/07/02 22:29:40;;;;;;;2.20;2.00;;;20.50;78.30;;;;;;10342420;28;20969;-69
2022/07/02 22:34:40;;;;;;;2.47;1.97;;;20.40;79.20;;;;;;10352864;28;20242;-69
2022/07/02 22:39:42;;;;;;;3.10;2.40;;;20.30;80.00;;;;;;10343573;28;20213;-69
2022/07/02 22:44:43;;;;;;;3.07;2.30;;;20.20;81.40;;;;;;10347335;28;20217;-69
2022/07/02 22:49:44;;;;;;;5.00;2.90;;;20.10;82.20;;;;;;10335799;28;20229;-69
2022/07/02 22:54:44;;;;;;;6.40;2.97;;;20.20;83.60;;;;;;10351633;28;20233;-70
2022/07/02 22:59:45;;;;;;;4.20;2.97;;;20.10;84.50;;;;;;10344894;28;20312;-69
2022/07/02 23:04:45;;;;;;;2.97;2.50;;;20.10;86.20;;;;;;10349987;28;20225;-69
2022/07/02 23:09:47;;;;;;;3.47;3.10;;;20.00;87.10;;;;;;10328097;28;20226;-70
2022/07/02 23:14:48;;;;;;;3.33;3.00;;;19.90;88.60;;;;;;10348038;28;20244;-69
2022/07/02 23:19:48;;;;;;;4.10;3.10;;;19.80;90.40;;;;;;10342550;28;20238;-69
2022/07/02 23:24:49;;;;;;;3.73;2.87;;;19.80;91.30;;;;;;10321765;28;20237;-69
2022/07/02 23:29:50;;;;;;;3.73;3.20;;;19.80;92.00;;;;;;10331560;28;20351;-70
2022/07/02 23:34:50;;;;;;;4.43;2.77;;;19.80;93.50;;;;;;10339345;28;20229;-70
2022/07/02 23:39:51;;;;;;;4.40;3.17;;;19.80;95.00;;;;;;10343327;28;20210;-69
2022/07/02 23:44:52;;;;;;;4.73;3.10;;;19.70;96.10;;;;;;10333006;28;20317;-67
2022/07/02 23:49:53;;;;;;;4.20;3.57;;;19.70;98.10;;;;;;10330367;28;20225;-67
2022/07/02 23:54:53;;;;;;;3.50;2.70;;;19.70;99.90;;;;;;10343331;28;20225;-67
2022/07/02 23:59:54;;;;;;;3.37;2.90;;;19.70;99.90;;;;;;10318721;28;20235;-66
